Time;durP1;ratioP1;P1;durP2;ratioP2;P2;SDS_P1;SDS_P2;PMS_P1;PMS_P2;Temp;Humidity;BMP_temperature;BMP_pressure;BME280_temperature;BME280_humidity;BME280_pressure;Samples;Min_cycle;Max_cycle;Signal;HPM_P1;HPM_P2
2022/05/01 00:01:02;;;;;;;30.38;19.88;;;;;;;8.85;56.64;102640.88;5181549;28;20438;-47
2022/05/01 00:03:35;;;;;;;27.25;21.10;;;;;;;8.62;56.58;102608.06;5172190;28;20887;-46
2022/05/01 00:06:10;;;;;;;26.42;19.00;;;;;;;8.77;56.66;102641.38;5168042;28;20756;-45
2022/05/01 00:08:44;;;;;;;31.52;21.13;;;;;;;8.81;56.64;102638.56;5183265;28;20412;-45
2022/05/01 00:11:17;;;;;;;26.33;20.88;;;;;;;8.79;56.56;102641.25;5185056;28;20506;-47
2022/05/01 00:13:50;;;;;;;25.73;19.95;;;;;;;8.66;56.70;102622.72;5183744;28;20411;-39
2022/05/01 00:16:22;;;;;;;26.88;20.40;;;;;;;8.75;56.66;102635.34;5179643;28;20412;-46
2022/05/01 00:18:55;;;;;;;26.03;20.43;;;;;;;8.71;57.00;102631.22;5183008;28;20895;-45
2022/05/01 00:21:27;;;;;;;27.90;19.90;;;;;;;8.66;57.10;102630.63;5182674;28;21099;-46
2022/05/01 00:24:00;;;;;;;30.13;21.63;;;;;;;8.65;56.85;102634.22;5181604;28;20862;-48
2022/05/01 00:26:35;;;;;;;24.30;20.05;;;;;;;8.63;57.12;102636.09;5184141;28;20418;-46
2022/05/01 00:29:07;;;;;;;27.15;20.30;;;;;;;8.57;56.95;102625.94;5184529;28;20423;-47
2022/05/01 00:31:40;;;;;;;33.05;21.67;;;;;;;8.56;56.96;102632.13;5181308;28;20450;-47
2022/05/01 00:37:03;;;;;;;30.15;22.20;;;;;;;8.48;57.16;102623.84;5178795;28;20418;-44
2022/05/01 00:39:35;;;;;;;30.77;21.07;;;;;;;8.42;57.10;102611.03;5181200;28;20415;-45
2022/05/01 00:42:09;;;;;;;27.15;21.35;;;;;;;8.38;57.18;102612.16;5179706;28;20418;-48
2022/05/01 00:44:42;;;;;;;29.58;22.15;;;;;;;8.36;57.09;102614.88;5183678;28;20395;-46
2022/05/01 00:47:16;;;;;;;28.88;22.95;;;;;;;8.34;57.25;102618.53;5178486;28;20945;-46
2022/05/01 00:49:48;;;;;;;32.70;23.85;;;;;;;8.28;57.47;102610.06;5163846;28;20421;-47
2022/05/01 00:52:23;;;;;;;33.92;23.08;;;;;;;8.26;57.39;102609.28;5169798;28;20481;-43
2022/05/01 00:54:55;;;;;;;31.60;23.07;;;;;;;8.22;57.31;102610.44;5180467;28;20422;-48
2022/05/01 00:57:29;;;;;;;32.08;22.55;;;;;;;8.20;57.64;102606.19;5182641;28;20411;-49
2022/05/01 01:00:01;;;;;;;32.00;23.20;;;;;;;8.08;57.68;102594.59;5183010;28;20498;-48
2022/05/01 01:02:34;;;;;;;31.88;21.80;;;;;;;8.11;57.67;102602.31;5179953;28;20993;-48
2022/05/01 01:05:07;;;;;;;34.22;23.05;;;;;;;8.07;57.48;102593.75;5182183;28;20422;-47
2022/05/01 01:07:40;;;;;;;32.35;24.05;;;;;;;7.73;57.57;102591.41;5182548;28;20423;-51
2022/05/01 01:10:13;;;;;;;31.42;24.55;;;;;;;7.99;57.64;102590.75;5181606;28;20901;-48
2022/05/01 01:12:54;;;;;;;34.03;24.15;;;;;;;7.97;58.06;102594.41;5183296;28;20411;-47
2022/05/01 01:15:29;;;;;;;31.33;22.80;;;;;;;7.93;57.94;102587.59;5178254;28;21173;-44
2022/05/01 01:18:02;;;;;;;30.35;21.80;;;;;;;7.90;57.88;102593.03;5183060;28;21005;-47
2022/05/01 01:20:43;;;;;;;29.85;22.13;;;;;;;7.89;57.65;102591.34;5178795;28;20429;-44
2022/05/01 01:23:15;;;;;;;30.33;21.77;;;;;;;7.86;57.91;102592.38;5183796;28;21036;-46
2022/05/01 01:25:49;;;;;;;30.13;21.40;;;;;;;7.84;57.98;102589.84;5181741;28;20775;-49
2022/05/01 01:28:22;;;;;;;29.13;21.73;;;;;;;7.81;58.13;102595.28;5183350;28;20398;-42
2022/05/01 01:33:45;;;;;;;30.63;21.95;;;;;;;7.15;58.08;102533.31;5184953;28;20730;-51
2022/05/01 01:36:21;;;;;;;29.52;22.38;;;;;;;7.71;58.20;102594.13;5156512;28;20501;-49
2022/05/01 01:38:53;;;;;;;25.70;21.50;;;;;;;7.64;58.25;102582.25;5182672;28;20419;-49
2022/05/01 01:41:29;;;;;;;28.67;22.02;;;;;;;7.66;58.16;102590.91;5183137;28;20506;-46
2022/05/01 01:44:02;;;;;;;26.83;21.52;;;;;;;7.62;58.34;102594.66;5186826;28;21010;-43
2022/05/01 01:46:35;;;;;;;31.57;22.10;;;;;;;7.58;58.34;102588.69;5183714;28;20546;-48
2022/05/01 01:49:10;;;;;;;32.88;24.77;;;;;;;7.58;58.22;102593.97;5174306;28;20419;-48
2022/05/01 01:51:44;;;;;;;31.27;23.40;;;;;;;7.56;58.23;102592.38;5183649;28;20518;-47
2022/05/01 01:54:16;;;;;;;33.37;24.17;;;;;;;7.51;58.54;102586.53;5184407;28;21091;-50
2022/05/01 01:56:50;;;;;;;33.08;24.17;;;;;;;7.51;58.54;102612.81;5187670;28;20406;-51
2022/05/01 01:59:23;;;;;;;33.42;23.80;;;;;;;7.42;58.32;102579.16;5183107;28;20457;-51
2022/05/01 02:01:55;;;;;;;32.40;23.98;;;;;;;7.47;58.55;102587.63;5185627;28;20434;-46
2022/05/01 02:04:28;;;;;;;30.38;22.95;;;;;;;7.00;58.60;102517.53;5176996;28;20889;-46
2022/05/01 02:07:02;;;;;;;34.05;23.55;;;;;;;7.44;58.41;102595.69;5181906;28;20437;-44
2022/05/01 02:09:37;;;;;;;34.63;23.15;;;;;;;7.37;58.63;102589.91;5176862;28;20426;-45
2022/05/01 02:12:10;;;;;;;32.20;23.73;;;;;;;7.34;58.55;102590.97;5183771;28;20522;-47
2022/05/01 02:14:43;;;;;;;35.75;22.58;;;;;;;7.38;58.75;102596.88;5181539;28;20510;-51
2022/05/01 02:17:16;;;;;;;35.50;24.00;;;;;;;7.35;58.85;102594.44;5181860;28;20418;-51
2022/05/01 02:19:48;;;;;;;30.73;22.97;;;;;;;7.24;58.82;102578.41;5179486;28;20426;-50
2022/05/01 02:22:22;;;;;;;33.00;23.35;;;;;;;7.29;58.77;102582.47;5182911;28;20816;-49
2022/05/01 02:24:55;;;;;;;30.33;23.17;;;;;;;7.29;58.85;102598.22;5185214;28;20407;-51
2022/05/01 02:27:30;;;;;;;30.40;23.20;;;;;;;7.26;58.94;102587.91;5184443;28;20415;-48
2022/05/01 02:30:03;;;;;;;28.95;21.77;;;;;;;7.25;59.07;102582.75;5188038;28;20454;-50
2022/05/01 02:32:37;;;;;;;30.08;21.52;;;;;;;7.23;59.01;102582.81;5189379;28;20415;-48
2022/05/01 02:35:11;;;;;;;29.40;22.33;;;;;;;7.20;58.95;102587.38;5176027;28;20989;-49
2022/05/01 02:37:45;;;;;;;28.05;21.00;;;;;;;7.17;59.07;102577.91;5185099;28;20482;-50
2022/05/01 02:40:18;;;;;;;31.52;22.67;;;;;;;7.14;58.92;102578.06;5184927;28;20433;-45
2022/05/01 02:42:50;;;;;;;28.02;21.48;;;;;;;7.09;58.87;102562.56;5183956;28;20596;-46
2022/05/01 02:45:23;;;;;;;36.47;24.75;;;;;;;7.07;58.97;102559.16;5172875;28;20433;-44
2022/05/01 02:47:56;;;;;;;30.40;22.48;;;;;;;7.10;59.19;102571.28;5165402;28;20411;-46
2022/05/01 02:50:28;;;;;;;30.73;23.27;;;;;;;7.01;59.05;102563.91;5181716;28;20425;-46
2022/05/01 02:53:04;;;;;;;32.78;23.92;;;;;;;7.03;58.96;102564.66;5185425;28;20480;-47
2022/05/01 02:55:36;;;;;;;30.55;22.40;;;;;;;6.97;59.20;102560.63;5182661;28;20427;-47
2022/05/01 02:58:09;;;;;;;30.50;22.83;;;;;;;7.01;59.25;102567.38;5185138;28;20635;-48
2022/05/01 03:00:41;;;;;;;29.65;22.27;;;;;;;7.00;59.42;102577.97;5184757;28;20950;-47
2022/05/01 03:03:13;;;;;;;31.80;23.33;;;;;;;6.95;59.17;102572.13;5186231;28;20550;-46
2022/05/01 03:05:46;;;;;;;32.40;23.23;;;;;;;6.89;59.23;102555.75;5175383;28;20403;-48
2022/05/01 03:08:20;;;;;;;34.70;22.85;;;;;;;6.85;59.21;102551.63;5186081;28;20996;-49
2022/05/01 03:10:53;;;;;;;34.28;23.30;;;;;;;6.91;59.30;102561.78;5180880;28;20447;-45
2022/05/01 03:13:25;;;;;;;31.42;24.05;;;;;;;6.90;59.30;102559.22;5182150;28;20469;-47
2022/05/01 03:16:01;;;;;;;31.52;24.00;;;;;;;6.85;59.43;102559.50;5175562;28;20426;-47
2022/05/01 03:24:15;;;;;;;33.58;24.67;;;;;;;6.76;59.57;102546.88;5170178;28;20456;-48
2022/05/01 03:26:48;;;;;;;31.13;23.20;;;;;;;6.73;59.63;102547.03;5161949;28;20488;-47
2022/05/01 03:29:21;;;;;;;31.92;24.48;;;;;;;6.77;59.43;102559.06;5136893;28;20427;-41
2022/05/01 03:31:54;;;;;;;30.77;24.35;;;;;;;6.75;59.57;102553.06;5140037;28;20502;-50
2022/05/01 03:34:29;;;;;;;36.88;26.20;;;;;;;6.72;59.52;102550.59;5169632;28;20411;-46
2022/05/01 03:37:02;;;;;;;34.30;25.23;;;;;;;6.68;59.77;102554.28;5161871;28;20457;-47
2022/05/01 03:39:36;;;;;;;31.70;26.83;;;;;;;6.66;59.53;102550.94;5159677;28;20531;-48
2022/05/01 03:42:09;;;;;;;32.95;25.30;;;;;;;6.37;59.95;102515.72;5173572;28;20442;-49
2022/05/01 03:44:42;;;;;;;34.45;26.48;;;;;;;6.64;59.79;102558.03;5136573;28;20524;-48
2022/05/01 03:47:14;;;;;;;33.88;24.13;;;;;;;6.61;59.75;102543.28;5148677;28;20458;-50
2022/05/01 03:49:47;;;;;;;38.08;26.90;;;;;;;6.51;59.98;102536.00;5170423;28;20411;-45
2022/05/01 03:52:19;;;;;;;37.60;24.75;;;;;;;6.57;59.78;102547.00;5155792;28;20541;-46
2022/05/01 03:54:53;;;;;;;34.40;25.67;;;;;;;6.57;60.19;102548.78;5154090;28;20887;-46
2022/05/01 03:57:26;;;;;;;37.80;26.98;;;;;;;6.53;59.84;102545.47;5171976;28;20424;-45
2022/05/01 03:59:58;;;;;;;37.90;25.67;;;;;;;6.44;60.02;102536.31;5171447;28;20455;-44
2022/05/01 04:02:31;;;;;;;36.00;25.35;;;;;;;6.55;60.09;102558.50;5162995;28;20431;-48
2022/05/01 04:05:05;;;;;;;43.67;26.17;;;;;;;6.48;60.11;102542.25;5168211;28;20448;-45
2022/05/01 04:07:38;;;;;;;34.78;26.70;;;;;;;6.51;59.84;102552.59;5169480;28;20437;-47
2022/05/01 04:10:12;;;;;;;32.78;25.92;;;;;;;6.53;60.35;102555.13;5176029;28;20419;-45
2022/05/01 04:12:46;;;;;;;36.20;26.42;;;;;;;6.54;60.09;102556.84;5168772;28;20427;-46
2022/05/01 04:15:18;;;;;;;36.43;25.53;;;;;;;6.54;60.19;102557.66;5177277;28;20423;-46
2022/05/01 04:17:51;;;;;;;35.90;25.38;;;;;;;6.51;60.40;102546.50;5165410;28;20395;-43
2022/05/01 04:20:23;;;;;;;41.83;27.77;;;;;;;6.55;60.19;102554.09;5139327;28;20413;-46
2022/05/01 04:22:56;;;;;;;37.23;28.40;;;;;;;6.57;60.25;102573.25;5171094;28;20425;-49
2022/05/01 04:25:30;;;;;;;37.78;29.08;;;;;;;6.58;60.41;102559.19;5164626;28;20421;-48
2022/05/01 04:28:06;;;;;;;43.30;28.58;;;;;;;6.60;60.28;102557.34;5168961;28;20830;-48
2022/05/01 04:30:40;;;;;;;40.67;28.80;;;;;;;6.63;60.44;102561.59;5167868;28;20420;-46
2022/05/01 04:33:14;;;;;;;37.17;26.50;;;;;;;6.65;60.57;102557.94;5145578;28;20569;-44
2022/05/01 04:35:50;;;;;;;40.33;28.02;;;;;;;6.69;60.34;102556.00;5172286;28;20473;-47
2022/05/01 04:38:27;;;;;;;40.47;26.92;;;;;;;6.73;60.53;102561.94;5161370;28;20547;-45
2022/05/01 04:41:01;;;;;;;39.15;26.52;;;;;;;6.68;60.36;102549.03;5147415;28;20428;-47
2022/05/01 04:43:35;;;;;;;37.33;27.15;;;;;;;6.73;60.50;102544.41;5170719;28;20423;-46
2022/05/01 04:46:08;;;;;;;34.00;24.58;;;;;;;6.85;60.46;102556.88;5172107;28;20810;-47
2022/05/01 04:48:40;;;;;;;32.28;24.60;;;;;;;6.97;60.65;102559.75;5176225;28;20500;-46
2022/05/01 04:51:15;;;;;;;32.03;23.27;;;;;;;7.06;60.75;102551.34;5169680;28;20426;-46
2022/05/01 04:53:50;;;;;;;34.70;24.35;;;;;;;7.18;60.72;102563.81;5144391;28;20511;-45
2022/05/01 04:59:13;;;;;;;32.53;24.17;;;;;;;7.23;60.69;102567.03;5168258;28;20467;-44
2022/05/01 05:01:46;;;;;;;31.50;24.60;;;;;;;7.44;60.89;102553.63;5163679;28;20440;-46
2022/05/01 05:04:21;;;;;;;36.35;24.45;;;;;;;7.72;60.70;102573.94;5161394;28;20419;-48
2022/05/01 05:06:54;;;;;;;30.52;22.27;;;;;;;7.75;60.74;102548.28;5173864;28;20504;-45
2022/05/01 05:12:17;;;;;;;27.48;21.42;;;;;;;8.23;60.90;102580.53;5175685;28;20869;-47
2022/05/01 05:14:51;;;;;;;29.40;21.90;;;;;;;8.36;60.82;102600.84;5172310;28;20453;-45
2022/05/01 05:17:24;;;;;;;28.23;21.98;;;;;;;8.43;60.92;102575.91;5181006;28;20407;-49
2022/05/01 05:19:59;;;;;;;28.33;20.48;;;;;;;8.64;60.93;102585.13;5176929;28;20486;-47
2022/05/01 05:22:31;;;;;;;26.10;21.13;;;;;;;8.86;60.80;102583.81;5180740;28;20577;-50
2022/05/01 05:25:08;;;;;;;26.63;20.92;;;;;;;8.50;60.72;102529.81;5172563;28;20850;-46
2022/05/01 05:27:42;;;;;;;26.67;20.85;;;;;;;9.19;60.81;102589.53;5176309;28;20877;-51
2022/05/01 05:30:15;;;;;;;24.98;20.48;;;;;;;9.35;60.70;102592.06;5170774;28;20490;-50
2022/05/01 05:32:48;;;;;;;23.48;19.15;;;;;;;9.53;60.75;102583.91;5144838;28;20889;-51
2022/05/01 05:35:20;;;;;;;31.60;19.30;;;;;;;9.79;60.65;102600.66;5176807;28;20411;-46
2022/05/01 05:37:52;;;;;;;22.73;18.30;;;;;;;10.04;60.55;102599.88;5172874;28;20403;-48
2022/05/01 05:40:25;;;;;;;22.92;16.90;;;;;;;10.30;60.40;102600.78;5176672;28;20419;-47
2022/05/01 05:42:59;;;;;;;22.70;16.77;;;;;;;10.63;60.16;102583.56;5171540;28;20445;-46
2022/05/01 05:45:31;;;;;;;21.80;15.93;;;;;;;11.31;59.63;102593.66;5178341;28;20443;-49
2022/05/01 05:48:04;;;;;;;18.23;14.90;;;;;;;11.94;59.17;102596.97;5176617;28;20506;-52
2022/05/01 05:50:37;;;;;;;15.32;12.93;;;;;;;12.52;58.92;102581.06;5182259;28;20895;-52
2022/05/01 05:53:12;;;;;;;18.58;13.60;;;;;;;13.01;58.59;102601.06;5172745;28;20834;-52
2022/05/01 05:55:46;;;;;;;22.42;14.30;;;;;;;13.17;58.39;102603.31;5165860;28;20817;-50
2022/05/01 05:58:20;;;;;;;22.48;15.30;;;;;;;13.16;58.31;102597.13;5174849;28;20903;-49
2022/05/01 06:00:52;;;;;;;21.73;15.68;;;;;;;13.00;58.45;102599.34;5166822;28;20432;-53
2022/05/01 06:03:25;;;;;;;21.23;15.82;;;;;;;12.91;58.40;102601.78;5177773;28;20942;-47
2022/05/01 06:05:57;;;;;;;20.92;14.25;;;;;;;12.82;58.33;102599.84;5179772;28;20945;-47
2022/05/01 06:08:30;;;;;;;19.83;13.55;;;;;;;12.87;58.15;102610.09;5174165;28;20777;-49
2022/05/01 06:11:02;;;;;;;18.65;14.40;;;;;;;12.52;57.98;102533.34;5172337;28;20445;-47
2022/05/01 06:13:36;;;;;;;16.83;13.48;;;;;;;13.08;57.76;102599.59;5172721;28;20433;-49
2022/05/01 06:16:08;;;;;;;20.00;13.25;;;;;;;13.23;57.39;102603.66;5174238;28;20507;-48
2022/05/01 06:18:41;;;;;;;18.85;13.00;;;;;;;13.29;57.21;102587.28;5168020;28;20935;-49
2022/05/01 06:21:14;;;;;;;20.10;12.57;;;;;;;13.51;57.18;102601.44;5164058;28;20892;-48
2022/05/01 06:23:48;;;;;;;20.83;13.93;;;;;;;13.62;56.89;102593.41;5161950;28;20768;-52
2022/05/01 06:26:20;;;;;;;15.70;12.20;;;;;;;13.94;56.50;102600.53;5167540;28;20413;-53
2022/05/01 06:28:54;;;;;;;18.70;12.10;;;;;;;14.49;56.12;102606.44;5164777;28;20870;-52
2022/05/01 06:31:27;;;;;;;14.07;11.32;;;;;;;14.74;55.85;102614.03;5165051;28;20492;-49
2022/05/01 06:33:59;;;;;;;14.32;10.48;;;;;;;14.85;55.49;102598.94;5165715;28;20931;-51
2022/05/01 06:36:33;;;;;;;15.90;11.37;;;;;;;15.31;55.16;102600.19;5166109;28;20485;-49
2022/05/01 06:39:06;;;;;;;15.45;10.82;;;;;;;15.91;54.39;102604.44;5166810;28;20817;-51
2022/05/01 06:41:38;;;;;;;16.73;10.68;;;;;;;16.32;53.72;102601.53;5167275;28;20429;-50
2022/05/01 06:44:12;;;;;;;20.90;10.05;;;;;;;16.62;53.13;102602.31;5166545;28;20423;-50
2022/05/01 06:46:45;;;;;;;13.67;9.97;;;;;;;16.98;52.74;102603.31;5166391;28;20399;-54
2022/05/01 06:49:17;;;;;;;14.35;10.23;;;;;;;17.22;52.40;102595.56;5164714;28;20489;-49
2022/05/01 06:51:50;;;;;;;14.80;10.32;;;;;;;17.21;51.86;102571.66;5165532;28;20506;-50
2022/05/01 06:54:22;;;;;;;16.83;10.07;;;;;;;17.17;51.93;102597.84;5161382;28;20995;-51
2022/05/01 06:56:55;;;;;;;14.20;9.98;;;;;;;17.10;51.85;102603.94;5165150;28;20413;-50
2022/05/01 06:59:31;;;;;;;14.48;9.93;;;;;;;17.41;51.59;102602.59;5165415;28;20517;-50
2022/05/01 07:02:04;;;;;;;14.40;10.20;;;;;;;18.02;50.79;102597.47;5164420;28;20413;-51
2022/05/01 07:04:37;;;;;;;14.73;9.10;;;;;;;18.51;50.04;102587.06;5167444;28;20421;-50
2022/05/01 07:07:09;;;;;;;13.77;9.60;;;;;;;18.79;49.68;102580.53;5159749;28;20800;-53
2022/05/01 07:09:42;;;;;;;14.77;9.48;;;;;;;19.20;49.02;102594.06;5166358;28;20413;-54
2022/05/01 07:12:14;;;;;;;13.73;9.20;;;;;;;19.48;48.80;102593.75;5166384;28;20475;-52
2022/05/01 07:14:48;;;;;;;12.30;9.10;;;;;;;19.85;48.11;102584.41;5166482;28;20761;-51
2022/05/01 07:17:20;;;;;;;12.48;8.05;;;;;;;19.83;47.82;102589.13;5169374;28;20498;-53
2022/05/01 07:19:53;;;;;;;15.30;8.63;;;;;;;19.70;47.83;102587.78;5174056;28;20442;-55
2022/05/01 07:22:26;;;;;;;12.23;8.98;;;;;;;19.53;47.78;102589.56;5175142;28;20546;-53
2022/05/01 07:25:01;;;;;;;14.38;9.80;;;;;;;19.18;47.87;102590.72;5181875;28;20456;-52
2022/05/01 07:27:34;;;;;;;13.10;9.13;;;;;;;18.82;47.98;102574.84;5171119;28;20458;-51
2022/05/01 07:30:09;;;;;;;15.57;9.27;;;;;;;18.62;48.10;102578.78;5168231;28;20422;-49
2022/05/01 07:32:42;;;;;;;15.48;9.40;;;;;;;18.75;48.05;102584.53;5171278;28;20819;-51
2022/05/01 07:35:14;;;;;;;12.68;9.85;;;;;;;18.85;47.40;102579.88;5175444;28;20441;-53
2022/05/01 07:37:47;;;;;;;14.13;8.65;;;;;;;19.17;47.31;102594.41;5178968;28;20424;-50
2022/05/01 07:40:24;;;;;;;12.23;8.55;;;;;;;19.36;47.11;102598.63;5179486;28;20467;-53
2022/05/01 07:42:56;;;;;;;12.98;8.18;;;;;;;19.00;46.92;102592.66;5176056;28;20461;-53
2022/05/01 07:45:30;;;;;;;13.90;8.63;;;;;;;18.50;47.35;102590.75;5174762;28;20788;-49
2022/05/01 07:48:02;;;;;;;12.43;7.80;;;;;;;18.15;47.47;102593.41;5176973;28;20544;-56
2022/05/01 07:50:35;;;;;;;13.38;8.88;;;;;;;17.85;47.46;102586.66;5166441;28;20553;-52
2022/05/01 07:53:08;;;;;;;15.15;9.48;;;;;;;17.84;47.26;102586.78;5173295;28;20426;-50
2022/05/01 07:55:40;;;;;;;15.52;8.50;;;;;;;18.14;47.23;102585.50;5172277;28;20500;-53
2022/05/01 07:58:13;;;;;;;12.00;8.48;;;;;;;18.58;46.57;102574.72;5163814;28;20444;-53
2022/05/01 08:00:47;;;;;;;10.60;7.53;;;;;;;19.07;46.30;102582.97;5172153;28;20510;-55
2022/05/01 08:06:12;;;;;;;8.38;6.43;;;;;;;18.67;46.34;102587.13;5168852;28;20477;-51
2022/05/01 08:08:44;;;;;;;12.20;7.10;;;;;;;17.93;46.58;102589.41;5179056;28;20516;-53
2022/05/01 08:11:16;;;;;;;9.32;7.07;;;;;;;17.73;46.72;102587.84;5179038;28;20440;-49
2022/05/01 08:13:49;;;;;;;10.40;7.35;;;;;;;17.58;46.31;102584.06;5181544;28;20407;-52
2022/05/01 08:16:23;;;;;;;11.35;6.88;;;;;;;17.61;46.32;102589.91;5177055;28;20426;-53
2022/05/01 08:21:48;;;;;;;13.77;7.47;;;;;;;18.04;45.64;102590.13;5179610;28;20490;-52
2022/05/01 08:24:20;;;;;;;10.35;5.60;;;;;;;18.54;45.50;102576.06;5180353;28;20480;-54
2022/05/01 08:26:53;;;;;;;7.03;4.60;;;;;;;18.88;44.77;102579.56;5177020;28;20444;-55
2022/05/01 08:29:25;;;;;;;7.22;4.38;;;;;;;18.31;45.08;102584.63;5176952;28;20435;-55
2022/05/01 08:32:00;;;;;;;7.28;4.35;;;;;;;18.05;45.05;102586.47;5180911;28;20419;-52
2022/05/01 08:34:33;;;;;;;6.15;4.13;;;;;;;18.10;44.83;102578.81;5180015;28;20460;-52
2022/05/01 08:37:05;;;;;;;8.00;6.13;;;;;;;17.98;44.25;102581.72;5183749;28;20427;-50
2022/05/01 08:39:40;;;;;;;10.48;5.43;;;;;;;17.84;44.25;102582.31;5185561;28;20460;-52
2022/05/01 08:42:13;;;;;;;9.13;5.20;;;;;;;17.80;44.01;102566.72;5183059;28;20442;-51
2022/05/01 08:44:47;;;;;;;7.03;5.32;;;;;;;17.79;43.76;102576.59;5180814;28;20421;-52
2022/05/01 08:47:28;;;;;;;9.68;5.90;;;;;;;17.62;43.61;102575.59;5184816;28;20418;-53
2022/05/01 08:50:02;;;;;;;8.55;5.93;;;;;;;17.55;43.44;102568.31;5181185;28;20435;-49
2022/05/01 08:52:37;;;;;;;7.72;6.13;;;;;;;17.59;43.29;102575.03;5181031;28;20737;-51
2022/05/01 08:55:12;;;;;;;9.98;6.70;;;;;;;17.48;43.19;102568.94;5180698;28;20432;-50
2022/05/01 08:57:44;;;;;;;10.88;6.40;;;;;;;17.29;43.25;102561.91;5184606;28;20416;-49
2022/05/01 09:00:19;;;;;;;8.30;6.30;;;;;;;17.33;43.15;102573.13;5179487;28;20504;-53
2022/05/01 09:02:53;;;;;;;11.10;6.80;;;;;;;17.01;43.14;102566.47;5177709;28;20865;-53
2022/05/01 09:05:25;;;;;;;12.55;6.95;;;;;;;16.69;43.35;102577.56;5164472;28;20423;-50
2022/05/01 09:07:58;;;;;;;10.85;6.82;;;;;;;16.46;43.50;102571.75;5166932;28;20523;-49
2022/05/01 09:10:34;;;;;;;8.43;6.60;;;;;;;16.54;43.47;102574.53;5161247;28;20414;-53
2022/05/01 09:13:07;;;;;;;8.32;6.18;;;;;;;16.63;43.29;102577.31;5172102;28;20840;-53
2022/05/01 09:15:44;;;;;;;10.13;6.60;;;;;;;16.62;43.17;102554.28;5172898;28;20430;-51
2022/05/01 09:18:19;;;;;;;8.95;6.68;;;;;;;16.92;43.03;102571.88;5169241;28;20425;-51
2022/05/01 09:21:03;;;;;;;10.20;6.53;;;;;;;16.87;42.89;102572.28;5178641;28;20450;-50
2022/05/01 09:23:40;;;;;;;11.32;6.22;;;;;;;16.61;43.22;102569.47;5171293;28;20435;-53
2022/05/01 09:26:14;;;;;;;10.15;6.88;;;;;;;16.55;43.02;102565.56;5172607;28;20403;-51
2022/05/01 09:28:52;;;;;;;10.60;6.70;;;;;;;16.46;43.14;102566.44;5177297;28;20427;-52
2022/05/01 09:31:47;;;;;;;10.00;6.93;;;;;;;16.34;43.19;102563.09;5176636;28;20413;-49
2022/05/01 09:34:23;;;;;;;12.10;6.85;;;;;;;16.38;43.33;102582.31;5163142;28;20429;-52
2022/05/01 09:36:56;;;;;;;9.18;6.50;;;;;;;16.36;43.10;102541.63;5174043;28;20401;-51
2022/05/01 09:39:30;;;;;;;14.38;7.28;;;;;;;16.86;42.66;102583.97;5176233;28;20418;-53
2022/05/01 09:42:35;;;;;;;14.13;8.23;;;;;;;16.85;42.72;102574.28;5175094;28;20610;-54
2022/05/01 09:45:11;;;;;;;12.55;7.72;;;;;;;16.80;42.87;102584.56;5171719;28;20431;-55
2022/05/01 09:47:45;;;;;;;8.88;6.60;;;;;;;16.65;42.88;102575.34;5176253;28;20411;-52
2022/05/01 09:50:41;;;;;;;11.80;7.35;;;;;;;16.44;43.23;102571.06;5175037;28;20861;-54
2022/05/01 09:53:14;;;;;;;10.15;7.28;;;;;;;16.59;43.09;102569.59;5175486;28;20431;-52
2022/05/01 09:56:01;;;;;;;9.00;6.13;;;;;;;16.85;42.73;102574.28;5175247;28;21578;-50
2022/05/01 09:58:38;;;;;;;9.15;5.50;;;;;;;17.01;42.65;102577.16;5173355;28;20413;-51
2022/05/01 10:01:13;;;;;;;15.82;6.43;;;;;;;17.29;42.40;102571.75;5170330;28;20422;-53
2022/05/01 10:03:47;;;;;;;10.95;6.60;;;;;;;17.23;42.41;102575.03;5174396;28;20933;-52
2022/05/01 10:06:23;;;;;;;9.93;6.30;;;;;;;17.20;42.35;102573.50;5173040;28;20430;-50
2022/05/01 10:08:58;;;;;;;9.15;5.85;;;;;;;17.23;42.37;102580.38;5169922;28;20418;-53
2022/05/01 10:11:34;;;;;;;9.98;6.38;;;;;;;17.12;42.31;102536.03;5169092;28;20453;-52
2022/05/01 10:14:07;;;;;;;9.05;6.38;;;;;;;17.60;41.72;102568.72;5168566;28;20881;-54
2022/05/01 10:16:41;;;;;;;10.38;5.97;;;;;;;17.73;41.62;102566.47;5157794;28;20525;-51
2022/05/01 10:19:18;;;;;;;9.25;5.97;;;;;;;17.92;41.42;102563.63;5160044;28;20421;-50
2022/05/01 10:21:56;;;;;;;7.88;5.45;;;;;;;18.08;41.24;102559.41;5158795;28;20416;-56
2022/05/01 10:24:29;;;;;;;10.07;5.53;;;;;;;18.22;40.96;102561.50;5153677;28;20413;-57
2022/05/01 10:27:28;;;;;;;8.93;5.88;;;;;;;18.10;40.83;102557.44;5154187;28;20823;-53
2022/05/01 10:33:36;;;;;;;8.88;5.32;;;;;;;17.98;41.16;102552.31;5153121;28;20909;-52
2022/05/01 10:36:40;;;;;;;6.87;5.40;;;;;;;17.91;41.06;102548.63;5150386;28;20424;-51
2022/05/01 10:39:16;;;;;;;9.18;6.10;;;;;;;17.73;40.91;102540.59;5145138;28;20595;-51
2022/05/01 10:41:50;;;;;;;8.70;5.87;;;;;;;17.92;40.76;102541.44;5156951;28;20434;-53
2022/05/01 10:44:31;;;;;;;9.32;5.75;;;;;;;18.32;40.41;102543.50;5156497;28;20572;-53
2022/05/01 10:47:12;;;;;;;12.20;6.30;;;;;;;18.52;40.09;102536.09;5157155;28;20436;-50
2022/05/01 10:49:47;;;;;;;10.88;5.80;;;;;;;18.50;39.82;102532.72;5159883;28;20433;-52
2022/05/01 10:52:21;;;;;;;9.32;5.50;;;;;;;18.24;40.08;102526.56;5158292;28;20888;-50
2022/05/01 10:54:59;;;;;;;8.23;5.82;;;;;;;18.24;40.19;102521.22;5152943;28;20536;-53
2022/05/01 10:57:32;;;;;;;9.02;5.65;;;;;;;18.46;39.98;102525.16;5157903;28;20441;-55
2022/05/01 11:00:10;;;;;;;9.10;5.55;;;;;;;18.65;39.73;102525.75;5155408;28;20409;-52
2022/05/01 11:02:46;;;;;;;10.50;5.53;;;;;;;18.75;39.39;102544.41;5161704;28;20526;-54
2022/05/01 11:05:43;;;;;;;7.05;4.95;;;;;;;18.84;39.30;102519.31;5153719;28;20438;-54
2022/05/01 11:08:19;;;;;;;8.18;5.05;;;;;;;19.00;38.80;102518.53;5144623;28;20424;-52
2022/05/01 11:10:55;;;;;;;9.82;5.22;;;;;;;19.26;38.82;102507.69;5157133;28;20428;-53
2022/05/01 11:13:31;;;;;;;9.40;5.10;;;;;;;19.35;38.62;102512.06;5155095;28;20417;-51
2022/05/01 11:16:05;;;;;;;7.75;5.25;;;;;;;19.46;38.60;102496.63;5158336;28;20445;-51
2022/05/01 11:18:55;;;;;;;9.20;5.35;;;;;;;19.32;38.69;102488.28;5169760;28;20433;-53
2022/05/01 11:21:37;;;;;;;7.28;4.40;;;;;;;19.44;38.53;102495.97;5183102;28;20409;-51
2022/05/01 11:24:13;;;;;;;7.95;5.10;;;;;;;19.46;38.32;102469.84;5179831;28;21068;-46
2022/05/01 11:27:18;;;;;;;8.18;5.03;;;;;;;19.44;38.24;102485.25;5182885;28;20461;-49
2022/05/01 11:30:33;;;;;;;7.87;5.10;;;;;;;19.11;38.39;102477.22;5170601;28;20450;-51
2022/05/01 11:33:08;;;;;;;7.80;5.13;;;;;;;18.95;38.32;102469.13;5158682;28;20419;-55
2022/05/01 11:35:55;;;;;;;9.25;5.63;;;;;;;18.88;38.20;102472.47;5180592;28;20429;-55
2022/05/01 11:38:33;;;;;;;11.00;5.60;;;;;;;18.63;38.43;102478.75;5176088;28;20949;-52
2022/05/01 11:41:07;;;;;;;8.13;4.35;;;;;;;18.63;38.29;102478.75;5174273;28;21198;-51
2022/05/01 11:43:41;;;;;;;8.90;4.60;;;;;;;18.50;38.22;102467.69;5183983;28;20409;-53
2022/05/01 11:46:19;;;;;;;9.05;5.63;;;;;;;18.69;38.18;102461.22;5185141;28;20422;-54
2022/05/01 11:49:05;;;;;;;8.53;5.27;;;;;;;19.03;37.80;102466.50;5180620;28;20492;-51
2022/05/01 11:51:39;;;;;;;10.15;5.20;;;;;;;19.47;37.44;102466.97;5180954;28;20793;-53
2022/05/01 11:54:11;;;;;;;5.95;4.78;;;;;;;19.39;37.36;102439.34;5179371;28;20500;-51
2022/05/01 12:02:28;;;;;;;6.35;4.63;;;;;;;19.19;37.21;102458.44;5177123;28;20960;-52
2022/05/01 12:05:04;;;;;;;9.07;5.70;;;;;;;19.12;37.38;102460.13;5180169;28;20464;-51
2022/05/01 12:07:36;;;;;;;8.27;4.65;;;;;;;19.09;37.40;102449.75;5176336;28;20439;-54
2022/05/01 12:10:13;;;;;;;6.63;4.57;;;;;;;18.79;37.38;102446.69;5173741;28;20517;-53
2022/05/01 12:12:45;;;;;;;9.60;5.38;;;;;;;18.43;37.71;102451.44;5178764;28;20416;-52
2022/05/01 12:15:19;;;;;;;6.57;4.55;;;;;;;18.42;37.53;102429.19;5176620;28;20542;-54
2022/05/01 12:17:52;;;;;;;8.52;4.35;;;;;;;18.82;37.25;102451.72;5178487;28;20418;-53
2022/05/01 12:20:35;;;;;;;6.45;4.47;;;;;;;19.18;36.55;102446.06;5173384;28;20403;-54
2022/05/01 12:23:14;;;;;;;9.32;4.78;;;;;;;19.41;36.42;102440.03;5164081;28;20498;-55
2022/05/01 12:25:50;;;;;;;6.50;4.95;;;;;;;19.56;36.25;102433.81;5163225;28;20591;-51